sensor_id;sensor_type;location;lat;lon;timestamp;P1;durP1;ratioP1;P2;durP2;ratioP2
32295;SDS011;18781;51.550;5.418;2023-08-06T00:01:50;4.63;;;3.08;;
32295;SDS011;18781;51.550;5.418;2023-08-06T00:04:16;6.85;;;3.38;;
32295;SDS011;18781;51.550;5.418;2023-08-06T00:06:42;4.22;;;3.53;;
32295;SDS011;18781;51.550;5.418;2023-08-06T00:09:07;4.25;;;3.15;;
32295;SDS011;18781;51.550;5.418;2023-08-06T00:11:33;6.35;;;3.40;;
32295;SDS011;18781;51.550;5.418;2023-08-06T00:13:59;5.35;;;3.00;;
32295;SDS011;18781;51.550;5.418;2023-08-06T00:16:24;4.35;;;3.35;;
32295;SDS011;18781;51.550;5.418;2023-08-06T00:18:50;5.10;;;3.30;;
32295;SDS011;18781;51.550;5.418;2023-08-06T00:21:16;5.03;;;3.72;;
32295;SDS011;18781;51.550;5.418;2023-08-06T00:23:41;8.40;;;3.40;;
32295;SDS011;18781;51.550;5.418;2023-08-06T00:26:07;6.95;;;3.40;;
32295;SDS011;18781;51.550;5.418;2023-08-06T00:28:33;4.28;;;3.22;;
32295;SDS011;18781;51.550;5.418;2023-08-06T00:30:58;11.48;;;3.70;;
32295;SDS011;18781;51.550;5.418;2023-08-06T00:33:24;5.50;;;3.35;;
32295;SDS011;18781;51.550;5.418;2023-08-06T00:35:50;5.55;;;3.45;;
32295;SDS011;18781;51.550;5.418;2023-08-06T00:38:15;10.35;;;3.70;;
32295;SDS011;18781;51.550;5.418;2023-08-06T00:40:41;6.40;;;3.40;;
32295;SDS011;18781;51.550;5.418;2023-08-06T00:43:07;4.15;;;3.60;;
32295;SDS011;18781;51.550;5.418;2023-08-06T00:45:34;10.40;;;3.85;;
32295;SDS011;18781;51.550;5.418;2023-08-06T00:48:00;6.65;;;3.40;;
32295;SDS011;18781;51.550;5.418;2023-08-06T00:50:28;6.70;;;3.33;;
32295;SDS011;18781;51.550;5.418;2023-08-06T00:52:55;8.90;;;3.70;;
32295;SDS011;18781;51.550;5.418;2023-08-06T00:55:21;5.70;;;3.40;;
32295;SDS011;18781;51.550;5.418;2023-08-06T00:57:46;7.70;;;3.30;;
32295;SDS011;18781;51.550;5.418;2023-08-06T01:00:13;5.25;;;3.10;;
32295;SDS011;18781;51.550;5.418;2023-08-06T01:02:39;7.63;;;3.15;;
32295;SDS011;18781;51.550;5.418;2023-08-06T01:05:04;5.32;;;3.17;;
32295;SDS011;18781;51.550;5.418;2023-08-06T01:07:37;8.48;;;3.22;;
32295;SDS011;18781;51.550;5.418;2023-08-06T01:12:51;8.20;;;3.40;;
32295;SDS011;18781;51.550;5.418;2023-08-06T01:15:21;4.70;;;2.90;;
32295;SDS011;18781;51.550;5.418;2023-08-06T01:17:50;7.82;;;3.30;;
32295;SDS011;18781;51.550;5.418;2023-08-06T01:20:15;7.82;;;3.45;;
32295;SDS011;18781;51.550;5.418;2023-08-06T01:22:41;5.93;;;3.72;;
32295;SDS011;18781;51.550;5.418;2023-08-06T01:25:07;10.85;;;3.78;;
32295;SDS011;18781;51.550;5.418;2023-08-06T01:27:36;4.00;;;3.15;;
32295;SDS011;18781;51.550;5.418;2023-08-06T01:32:38;5.10;;;3.30;;
32295;SDS011;18781;51.550;5.418;2023-08-06T01:35:10;7.32;;;3.03;;
32295;SDS011;18781;51.550;5.418;2023-08-06T01:37:38;9.15;;;3.03;;
32295;SDS011;18781;51.550;5.418;2023-08-06T01:40:06;6.68;;;2.90;;
32295;SDS011;18781;51.550;5.418;2023-08-06T01:42:37;4.30;;;3.00;;
32295;SDS011;18781;51.550;5.418;2023-08-06T01:45:03;4.35;;;3.13;;
32295;SDS011;18781;51.550;5.418;2023-08-06T01:47:28;4.95;;;2.90;;
32295;SDS011;18781;51.550;5.418;2023-08-06T01:49:54;7.15;;;3.10;;
32295;SDS011;18781;51.550;5.418;2023-08-06T01:52:20;5.80;;;3.53;;
32295;SDS011;18781;51.550;5.418;2023-08-06T01:54:46;7.38;;;2.97;;
32295;SDS011;18781;51.550;5.418;2023-08-06T01:57:11;6.57;;;3.65;;
32295;SDS011;18781;51.550;5.418;2023-08-06T01:59:37;7.05;;;3.55;;
32295;SDS011;18781;51.550;5.418;2023-08-06T02:02:02;7.68;;;3.38;;
32295;SDS011;18781;51.550;5.418;2023-08-06T02:04:28;5.60;;;3.30;;
32295;SDS011;18781;51.550;5.418;2023-08-06T02:06:54;8.88;;;3.20;;
32295;SDS011;18781;51.550;5.418;2023-08-06T02:09:20;4.18;;;2.95;;
32295;SDS011;18781;51.550;5.418;2023-08-06T02:11:45;6.13;;;3.33;;
32295;SDS011;18781;51.550;5.418;2023-08-06T02:14:11;4.10;;;3.10;;
32295;SDS011;18781;51.550;5.418;2023-08-06T02:16:37;6.78;;;3.42;;
32295;SDS011;18781;51.550;5.418;2023-08-06T02:19:02;9.25;;;3.15;;
32295;SDS011;18781;51.550;5.418;2023-08-06T02:21:28;4.50;;;3.03;;
32295;SDS011;18781;51.550;5.418;2023-08-06T02:23:54;6.65;;;3.42;;
32295;SDS011;18781;51.550;5.418;2023-08-06T02:26:20;11.55;;;3.53;;
32295;SDS011;18781;51.550;5.418;2023-08-06T02:28:46;6.60;;;3.47;;
32295;SDS011;18781;51.550;5.418;2023-08-06T02:31:11;10.52;;;3.53;;
32295;SDS011;18781;51.550;5.418;2023-08-06T02:33:37;8.88;;;3.50;;
32295;SDS011;18781;51.550;5.418;2023-08-06T02:36:03;6.45;;;3.38;;
32295;SDS011;18781;51.550;5.418;2023-08-06T02:38:29;6.20;;;3.60;;
32295;SDS011;18781;51.550;5.418;2023-08-06T02:40:56;4.68;;;3.15;;
32295;SDS011;18781;51.550;5.418;2023-08-06T02:43:21;7.13;;;3.13;;
32295;SDS011;18781;51.550;5.418;2023-08-06T02:45:47;5.32;;;3.38;;
32295;SDS011;18781;51.550;5.418;2023-08-06T02:48:12;7.72;;;3.53;;
32295;SDS011;18781;51.550;5.418;2023-08-06T02:50:38;7.50;;;3.30;;
32295;SDS011;18781;51.550;5.418;2023-08-06T02:53:05;4.53;;;3.15;;
32295;SDS011;18781;51.550;5.418;2023-08-06T02:55:31;5.72;;;3.08;;
32295;SDS011;18781;51.550;5.418;2023-08-06T02:57:58;5.03;;;3.15;;
32295;SDS011;18781;51.550;5.418;2023-08-06T03:00:24;7.78;;;3.00;;
32295;SDS011;18781;51.550;5.418;2023-08-06T03:02:50;12.07;;;3.30;;
32295;SDS011;18781;51.550;5.418;2023-08-06T03:05:16;4.97;;;3.00;;
32295;SDS011;18781;51.550;5.418;2023-08-06T03:07:41;7.95;;;3.30;;
32295;SDS011;18781;51.550;5.418;2023-08-06T03:10:07;6.43;;;3.50;;
32295;SDS011;18781;51.550;5.418;2023-08-06T03:12:33;5.47;;;3.20;;
32295;SDS011;18781;51.550;5.418;2023-08-06T03:14:59;7.32;;;3.40;;
32295;SDS011;18781;51.550;5.418;2023-08-06T03:17:24;6.60;;;2.85;;
32295;SDS011;18781;51.550;5.418;2023-08-06T03:19:50;6.93;;;3.45;;
32295;SDS011;18781;51.550;5.418;2023-08-06T03:22:15;9.30;;;3.10;;
32295;SDS011;18781;51.550;5.418;2023-08-06T03:24:41;5.55;;;3.00;;
32295;SDS011;18781;51.550;5.418;2023-08-06T03:27:07;5.05;;;3.13;;
32295;SDS011;18781;51.550;5.418;2023-08-06T03:29:33;4.57;;;3.35;;
32295;SDS011;18781;51.550;5.418;2023-08-06T03:31:58;4.80;;;2.88;;
32295;SDS011;18781;51.550;5.418;2023-08-06T03:34:24;5.03;;;2.90;;
32295;SDS011;18781;51.550;5.418;2023-08-06T03:36:50;4.88;;;2.80;;
32295;SDS011;18781;51.550;5.418;2023-08-06T03:39:15;8.68;;;3.50;;
32295;SDS011;18781;51.550;5.418;2023-08-06T03:41:41;6.40;;;3.30;;
32295;SDS011;18781;51.550;5.418;2023-08-06T03:44:06;6.05;;;3.50;;
32295;SDS011;18781;51.550;5.418;2023-08-06T03:46:32;10.32;;;3.42;;
32295;SDS011;18781;51.550;5.418;2023-08-06T03:48:59;8.80;;;3.38;;
32295;SDS011;18781;51.550;5.418;2023-08-06T03:51:25;8.20;;;3.50;;
32295;SDS011;18781;51.550;5.418;2023-08-06T03:53:50;6.53;;;3.40;;
32295;SDS011;18781;51.550;5.418;2023-08-06T03:56:16;9.85;;;3.95;;
32295;SDS011;18781;51.550;5.418;2023-08-06T03:58:42;6.88;;;4.10;;
32295;SDS011;18781;51.550;5.418;2023-08-06T04:01:08;7.10;;;3.83;;
32295;SDS011;18781;51.550;5.418;2023-08-06T04:03:33;4.55;;;3.30;;
32295;SDS011;18781;51.550;5.418;2023-08-06T04:05:59;7.75;;;3.53;;
32295;SDS011;18781;51.550;5.418;2023-08-06T04:08:26;8.00;;;4.03;;
32295;SDS011;18781;51.550;5.418;2023-08-06T04:10:52;8.27;;;3.50;;
32295;SDS011;18781;51.550;5.418;2023-08-06T04:13:18;4.57;;;3.35;;
32295;SDS011;18781;51.550;5.418;2023-08-06T04:15:44;10.48;;;3.75;;
32295;SDS011;18781;51.550;5.418;2023-08-06T04:18:09;9.20;;;3.63;;
32295;SDS011;18781;51.550;5.418;2023-08-06T04:20:41;7.00;;;3.65;;
32295;SDS011;18781;51.550;5.418;2023-08-06T04:23:11;6.55;;;3.33;;
32295;SDS011;18781;51.550;5.418;2023-08-06T04:25:37;7.78;;;3.70;;
32295;SDS011;18781;51.550;5.418;2023-08-06T04:28:02;9.38;;;3.67;;
32295;SDS011;18781;51.550;5.418;2023-08-06T04:30:28;5.38;;;3.67;;
32295;SDS011;18781;51.550;5.418;2023-08-06T04:32:56;5.70;;;3.78;;
32295;SDS011;18781;51.550;5.418;2023-08-06T04:35:21;5.35;;;3.72;;
32295;SDS011;18781;51.550;5.418;2023-08-06T04:37:47;11.85;;;3.65;;
32295;SDS011;18781;51.550;5.418;2023-08-06T04:40:13;8.75;;;3.63;;
32295;SDS011;18781;51.550;5.418;2023-08-06T04:42:38;8.38;;;4.15;;
32295;SDS011;18781;51.550;5.418;2023-08-06T04:45:04;5.93;;;4.13;;
32295;SDS011;18781;51.550;5.418;2023-08-06T04:47:30;7.78;;;3.65;;
32295;SDS011;18781;51.550;5.418;2023-08-06T04:49:56;5.22;;;3.75;;
32295;SDS011;18781;51.550;5.418;2023-08-06T04:52:21;6.00;;;3.67;;
32295;SDS011;18781;51.550;5.418;2023-08-06T04:54:47;10.00;;;4.00;;
32295;SDS011;18781;51.550;5.418;2023-08-06T04:57:13;10.23;;;3.85;;
32295;SDS011;18781;51.550;5.418;2023-08-06T04:59:38;8.15;;;3.92;;
32295;SDS011;18781;51.550;5.418;2023-08-06T05:02:04;8.60;;;3.72;;
32295;SDS011;18781;51.550;5.418;2023-08-06T05:04:30;9.38;;;3.75;;
32295;SDS011;18781;51.550;5.418;2023-08-06T05:06:56;7.45;;;4.10;;
32295;SDS011;18781;51.550;5.418;2023-08-06T05:09:21;7.45;;;3.75;;
32295;SDS011;18781;51.550;5.418;2023-08-06T05:11:47;8.02;;;3.92;;
32295;SDS011;18781;51.550;5.418;2023-08-06T05:14:14;6.45;;;4.25;;
32295;SDS011;18781;51.550;5.418;2023-08-06T05:16:39;8.90;;;4.55;;
32295;SDS011;18781;51.550;5.418;2023-08-06T05:19:05;6.82;;;4.05;;
32295;SDS011;18781;51.550;5.418;2023-08-06T05:21:30;7.28;;;4.22;;
32295;SDS011;18781;51.550;5.418;2023-08-06T05:23:56;9.57;;;4.07;;
32295;SDS011;18781;51.550;5.418;2023-08-06T05:26:22;9.52;;;3.80;;
32295;SDS011;18781;51.550;5.418;2023-08-06T05:28:47;9.18;;;4.43;;
32295;SDS011;18781;51.550;5.418;2023-08-06T05:31:13;15.07;;;3.97;;
32295;SDS011;18781;51.550;5.418;2023-08-06T05:33:38;10.30;;;4.68;;
32295;SDS011;18781;51.550;5.418;2023-08-06T05:36:04;8.30;;;4.30;;
32295;SDS011;18781;51.550;5.418;2023-08-06T05:38:30;7.97;;;4.60;;
32295;SDS011;18781;51.550;5.418;2023-08-06T05:40:56;13.00;;;4.85;;
32295;SDS011;18781;51.550;5.418;2023-08-06T05:43:22;8.88;;;4.95;;
32295;SDS011;18781;51.550;5.418;2023-08-06T05:45:49;9.90;;;5.00;;
32295;SDS011;18781;51.550;5.418;2023-08-06T05:48:15;10.98;;;5.85;;
32295;SDS011;18781;51.550;5.418;2023-08-06T05:50:41;7.95;;;5.65;;
32295;SDS011;18781;51.550;5.418;2023-08-06T05:53:07;8.40;;;5.93;;
32295;SDS011;18781;51.550;5.418;2023-08-06T05:55:33;11.48;;;5.63;;
32295;SDS011;18781;51.550;5.418;2023-08-06T05:57:59;11.98;;;5.07;;
32295;SDS011;18781;51.550;5.418;2023-08-06T06:00:25;6.93;;;4.95;;
32295;SDS011;18781;51.550;5.418;2023-08-06T06:02:50;11.48;;;5.47;;
32295;SDS011;18781;51.550;5.418;2023-08-06T06:05:16;8.30;;;5.15;;
32295;SDS011;18781;51.550;5.418;2023-08-06T06:07:42;7.00;;;4.93;;
32295;SDS011;18781;51.550;5.418;2023-08-06T06:10:08;8.00;;;5.18;;
32295;SDS011;18781;51.550;5.418;2023-08-06T06:12:34;10.80;;;5.15;;
32295;SDS011;18781;51.550;5.418;2023-08-06T06:14:59;8.98;;;5.30;;
32295;SDS011;18781;51.550;5.418;2023-08-06T06:17:26;8.25;;;4.97;;
32295;SDS011;18781;51.550;5.418;2023-08-06T06:19:52;11.40;;;5.80;;
32295;SDS011;18781;51.550;5.418;2023-08-06T06:22:17;7.43;;;5.07;;
32295;SDS011;18781;51.550;5.418;2023-08-06T06:24:43;9.13;;;5.18;;
32295;SDS011;18781;51.550;5.418;2023-08-06T06:27:09;13.18;;;4.55;;
32295;SDS011;18781;51.550;5.418;2023-08-06T06:29:34;7.15;;;4.60;;
32295;SDS011;18781;51.550;5.418;2023-08-06T06:32:00;6.45;;;4.20;;
32295;SDS011;18781;51.550;5.418;2023-08-06T06:34:26;9.10;;;5.32;;
32295;SDS011;18781;51.550;5.418;2023-08-06T06:36:51;10.50;;;5.15;;
32295;SDS011;18781;51.550;5.418;2023-08-06T06:39:17;12.63;;;4.85;;
32295;SDS011;18781;51.550;5.418;2023-08-06T06:41:43;8.43;;;5.05;;
32295;SDS011;18781;51.550;5.418;2023-08-06T06:44:09;10.98;;;4.70;;
32295;SDS011;18781;51.550;5.418;2023-08-06T06:46:35;10.80;;;4.40;;
32295;SDS011;18781;51.550;5.418;2023-08-06T06:49:01;8.15;;;3.97;;
32295;SDS011;18781;51.550;5.418;2023-08-06T06:51:26;7.20;;;3.75;;
32295;SDS011;18781;51.550;5.418;2023-08-06T06:53:52;8.85;;;3.58;;
32295;SDS011;18781;51.550;5.418;2023-08-06T06:56:18;3.65;;;2.60;;
32295;SDS011;18781;51.550;5.418;2023-08-06T06:58:43;1.63;;;1.38;;
32295;SDS011;18781;51.550;5.418;2023-08-06T07:01:09;2.10;;;1.25;;
32295;SDS011;18781;51.550;5.418;2023-08-06T07:03:36;3.10;;;1.35;;
32295;SDS011;18781;51.550;5.418;2023-08-06T07:06:02;1.60;;;1.20;;
32295;SDS011;18781;51.550;5.418;2023-08-06T07:08:28;2.05;;;0.90;;
32295;SDS011;18781;51.550;5.418;2023-08-06T07:11:04;0.85;;;0.85;;
32295;SDS011;18781;51.550;5.418;2023-08-06T07:13:30;2.17;;;1.00;;
32295;SDS011;18781;51.550;5.418;2023-08-06T07:15:56;1.73;;;0.88;;
32295;SDS011;18781;51.550;5.418;2023-08-06T07:18:23;1.08;;;0.93;;
32295;SDS011;18781;51.550;5.418;2023-08-06T07:20:49;1.33;;;0.90;;
32295;SDS011;18781;51.550;5.418;2023-08-06T07:23:15;5.30;;;0.90;;
32295;SDS011;18781;51.550;5.418;2023-08-06T07:25:40;1.00;;;0.80;;
32295;SDS011;18781;51.550;5.418;2023-08-06T07:28:06;2.15;;;0.90;;
32295;SDS011;18781;51.550;5.418;2023-08-06T07:30:32;1.58;;;0.98;;
32295;SDS011;18781;51.550;5.418;2023-08-06T07:32:57;1.45;;;1.08;;
32295;SDS011;18781;51.550;5.418;2023-08-06T07:35:23;5.00;;;1.25;;
32295;SDS011;18781;51.550;5.418;2023-08-06T07:37:49;2.25;;;1.80;;
32295;SDS011;18781;51.550;5.418;2023-08-06T07:40:14;4.18;;;1.65;;
32295;SDS011;18781;51.550;5.418;2023-08-06T07:42:40;3.95;;;2.00;;
32295;SDS011;18781;51.550;5.418;2023-08-06T07:45:06;3.72;;;2.20;;
32295;SDS011;18781;51.550;5.418;2023-08-06T07:47:33;3.70;;;2.58;;
32295;SDS011;18781;51.550;5.418;2023-08-06T07:49:58;4.15;;;2.97;;
32295;SDS011;18781;51.550;5.418;2023-08-06T07:52:24;6.32;;;3.47;;
32295;SDS011;18781;51.550;5.418;2023-08-06T07:54:50;6.05;;;3.33;;
32295;SDS011;18781;51.550;5.418;2023-08-06T07:57:16;10.90;;;3.85;;
32295;SDS011;18781;51.550;5.418;2023-08-06T07:59:41;5.57;;;4.25;;
32295;SDS011;18781;51.550;5.418;2023-08-06T08:02:07;11.60;;;4.05;;
32295;SDS011;18781;51.550;5.418;2023-08-06T08:04:33;7.53;;;3.83;;
32295;SDS011;18781;51.550;5.418;2023-08-06T08:06:58;7.90;;;3.97;;
32295;SDS011;18781;51.550;5.418;2023-08-06T08:09:24;8.30;;;4.13;;
32295;SDS011;18781;51.550;5.418;2023-08-06T08:11:50;10.90;;;4.57;;
32295;SDS011;18781;51.550;5.418;2023-08-06T08:14:15;7.72;;;4.07;;
32295;SDS011;18781;51.550;5.418;2023-08-06T08:16:41;9.43;;;4.28;;
32295;SDS011;18781;51.550;5.418;2023-08-06T08:19:07;7.05;;;3.58;;
32295;SDS011;18781;51.550;5.418;2023-08-06T08:21:32;6.40;;;3.35;;
32295;SDS011;18781;51.550;5.418;2023-08-06T08:23:59;5.22;;;3.08;;
32295;SDS011;18781;51.550;5.418;2023-08-06T08:26:25;7.40;;;3.42;;
32295;SDS011;18781;51.550;5.418;2023-08-06T08:28:52;7.45;;;3.90;;
32295;SDS011;18781;51.550;5.418;2023-08-06T08:31:18;7.03;;;3.22;;
32295;SDS011;18781;51.550;5.418;2023-08-06T08:33:44;14.45;;;3.42;;
32295;SDS011;18781;51.550;5.418;2023-08-06T08:36:09;9.77;;;3.60;;
32295;SDS011;18781;51.550;5.418;2023-08-06T08:38:35;5.85;;;3.10;;
32295;SDS011;18781;51.550;5.418;2023-08-06T08:41:01;8.32;;;2.92;;
32295;SDS011;18781;51.550;5.418;2023-08-06T08:43:26;11.30;;;3.20;;
32295;SDS011;18781;51.550;5.418;2023-08-06T08:45:53;7.40;;;3.20;;
32295;SDS011;18781;51.550;5.418;2023-08-06T08:48:25;7.75;;;2.92;;
32295;SDS011;18781;51.550;5.418;2023-08-06T08:53:20;9.07;;;2.97;;
32295;SDS011;18781;51.550;5.418;2023-08-06T08:55:47;7.38;;;2.58;;
32295;SDS011;18781;51.550;5.418;2023-08-06T08:58:14;7.22;;;2.72;;
32295;SDS011;18781;51.550;5.418;2023-08-06T09:00:45;6.72;;;2.35;;
32295;SDS011;18781;51.550;5.418;2023-08-06T09:03:13;9.07;;;2.97;;
32295;SDS011;18781;51.550;5.418;2023-08-06T09:05:40;7.32;;;2.90;;
32295;SDS011;18781;51.550;5.418;2023-08-06T09:08:10;10.43;;;3.20;;
32295;SDS011;18781;51.550;5.418;2023-08-06T09:10:39;6.95;;;2.65;;
32295;SDS011;18781;51.550;5.418;2023-08-06T09:13:06;10.77;;;3.42;;
32295;SDS011;18781;51.550;5.418;2023-08-06T09:15:31;7.30;;;3.00;;
32295;SDS011;18781;51.550;5.418;2023-08-06T09:17:58;6.50;;;3.03;;
32295;SDS011;18781;51.550;5.418;2023-08-06T09:20:24;8.88;;;3.22;;
32295;SDS011;18781;51.550;5.418;2023-08-06T09:22:52;8.02;;;3.28;;
32295;SDS011;18781;51.550;5.418;2023-08-06T09:25:22;5.97;;;2.80;;
32295;SDS011;18781;51.550;5.418;2023-08-06T09:27:51;9.50;;;3.60;;
32295;SDS011;18781;51.550;5.418;2023-08-06T09:30:33;11.57;;;4.35;;
32295;SDS011;18781;51.550;5.418;2023-08-06T09:33:02;8.05;;;3.25;;
32295;SDS011;18781;51.550;5.418;2023-08-06T09:35:31;9.13;;;3.65;;
32295;SDS011;18781;51.550;5.418;2023-08-06T09:38:07;9.13;;;3.78;;
32295;SDS011;18781;51.550;5.418;2023-08-06T09:40:34;6.47;;;3.28;;
32295;SDS011;18781;51.550;5.418;2023-08-06T09:43:00;9.60;;;3.75;;
32295;SDS011;18781;51.550;5.418;2023-08-06T09:45:28;7.97;;;3.30;;
32295;SDS011;18781;51.550;5.418;2023-08-06T09:48:04;7.30;;;3.58;;
32295;SDS011;18781;51.550;5.418;2023-08-06T09:50:32;11.57;;;4.10;;
32295;SDS011;18781;51.550;5.418;2023-08-06T09:53:00;10.23;;;4.20;;
32295;SDS011;18781;51.550;5.418;2023-08-06T09:55:26;6.68;;;3.40;;
32295;SDS011;18781;51.550;5.418;2023-08-06T09:57:53;8.85;;;3.65;;
32295;SDS011;18781;51.550;5.418;2023-08-06T10:00:19;9.68;;;3.60;;
32295;SDS011;18781;51.550;5.418;2023-08-06T10:02:47;7.38;;;3.85;;
32295;SDS011;18781;51.550;5.418;2023-08-06T10:05:14;6.78;;;3.65;;
32295;SDS011;18781;51.550;5.418;2023-08-06T10:07:41;8.80;;;3.78;;
32295;SDS011;18781;51.550;5.418;2023-08-06T10:10:09;8.57;;;3.70;;
32295;SDS011;18781;51.550;5.418;2023-08-06T10:12:43;13.02;;;4.10;;
32295;SDS011;18781;51.550;5.418;2023-08-06T10:15:15;10.05;;;3.55;;
32295;SDS011;18781;51.550;5.418;2023-08-06T10:17:45;11.50;;;4.10;;
32295;SDS011;18781;51.550;5.418;2023-08-06T10:20:14;6.85;;;3.65;;
32295;SDS011;18781;51.550;5.418;2023-08-06T10:22:43;7.55;;;3.38;;
32295;SDS011;18781;51.550;5.418;2023-08-06T10:25:10;9.27;;;4.03;;
32295;SDS011;18781;51.550;5.418;2023-08-06T10:30:32;7.95;;;3.38;;
32295;SDS011;18781;51.550;5.418;2023-08-06T10:33:02;11.75;;;3.92;;
32295;SDS011;18781;51.550;5.418;2023-08-06T10:35:40;10.63;;;4.43;;
32295;SDS011;18781;51.550;5.418;2023-08-06T10:40:50;6.45;;;3.80;;
32295;SDS011;18781;51.550;5.418;2023-08-06T10:43:28;9.55;;;3.72;;
32295;SDS011;18781;51.550;5.418;2023-08-06T10:46:01;10.00;;;4.13;;
32295;SDS011;18781;51.550;5.418;2023-08-06T10:48:29;9.67;;;4.20;;
32295;SDS011;18781;51.550;5.418;2023-08-06T10:50:56;7.22;;;3.95;;
32295;SDS011;18781;51.550;5.418;2023-08-06T10:53:22;7.72;;;4.30;;
32295;SDS011;18781;51.550;5.418;2023-08-06T10:55:48;8.57;;;4.25;;
32295;SDS011;18781;51.550;5.418;2023-08-06T10:58:15;9.90;;;4.18;;
32295;SDS011;18781;51.550;5.418;2023-08-06T11:00:41;4.57;;;3.45;;
32295;SDS011;18781;51.550;5.418;2023-08-06T11:03:07;9.60;;;3.53;;
32295;SDS011;18781;51.550;5.418;2023-08-06T11:05:34;6.25;;;3.50;;
32295;SDS011;18781;51.550;5.418;2023-08-06T11:08:00;7.80;;;3.75;;
32295;SDS011;18781;51.550;5.418;2023-08-06T11:10:26;8.48;;;3.33;;
32295;SDS011;18781;51.550;5.418;2023-08-06T11:12:52;6.28;;;3.30;;
32295;SDS011;18781;51.550;5.418;2023-08-06T11:15:19;9.10;;;3.28;;
32295;SDS011;18781;51.550;5.418;2023-08-06T11:17:45;5.90;;;3.40;;
32295;SDS011;18781;51.550;5.418;2023-08-06T11:20:11;7.10;;;3.60;;
32295;SDS011;18781;51.550;5.418;2023-08-06T11:22:37;7.43;;;3.63;;
32295;SDS011;18781;51.550;5.418;2023-08-06T11:25:04;7.97;;;3.40;;
32295;SDS011;18781;51.550;5.418;2023-08-06T11:27:33;7.65;;;3.40;;
32295;SDS011;18781;51.550;5.418;2023-08-06T11:29:59;5.30;;;3.55;;
32295;SDS011;18781;51.550;5.418;2023-08-06T11:32:25;8.98;;;3.60;;
32295;SDS011;18781;51.550;5.418;2023-08-06T11:34:52;11.55;;;4.00;;
32295;SDS011;18781;51.550;5.418;2023-08-06T11:37:23;7.55;;;4.07;;
32295;SDS011;18781;51.550;5.418;2023-08-06T11:39:50;8.38;;;4.57;;
32295;SDS011;18781;51.550;5.418;2023-08-06T11:42:16;8.20;;;4.60;;
32295;SDS011;18781;51.550;5.418;2023-08-06T11:44:42;11.55;;;4.65;;
32295;SDS011;18781;51.550;5.418;2023-08-06T11:47:14;10.70;;;5.10;;
32295;SDS011;18781;51.550;5.418;2023-08-06T11:49:48;7.82;;;4.53;;
32295;SDS011;18781;51.550;5.418;2023-08-06T11:52:15;9.32;;;4.55;;
32295;SDS011;18781;51.550;5.418;2023-08-06T11:54:41;13.80;;;4.82;;
32295;SDS011;18781;51.550;5.418;2023-08-06T11:57:07;6.75;;;4.18;;
32295;SDS011;18781;51.550;5.418;2023-08-06T11:59:33;6.55;;;3.88;;
32295;SDS011;18781;51.550;5.418;2023-08-06T12:02:00;7.50;;;3.80;;
32295;SDS011;18781;51.550;5.418;2023-08-06T12:04:30;8.88;;;3.60;;
32295;SDS011;18781;51.550;5.418;2023-08-06T12:07:04;7.10;;;3.97;;
32295;SDS011;18781;51.550;5.418;2023-08-06T12:09:32;7.97;;;4.18;;
32295;SDS011;18781;51.550;5.418;2023-08-06T12:11:58;9.43;;;4.05;;
32295;SDS011;18781;51.550;5.418;2023-08-06T12:14:24;8.02;;;4.30;;
32295;SDS011;18781;51.550;5.418;2023-08-06T12:16:49;8.95;;;3.90;;
32295;SDS011;18781;51.550;5.418;2023-08-06T12:19:15;8.95;;;2.90;;
32295;SDS011;18781;51.550;5.418;2023-08-06T12:21:41;6.70;;;3.30;;
32295;SDS011;18781;51.550;5.418;2023-08-06T12:24:06;8.10;;;3.40;;
32295;SDS011;18781;51.550;5.418;2023-08-06T12:26:32;7.68;;;3.22;;
32295;SDS011;18781;51.550;5.418;2023-08-06T12:28:58;5.55;;;3.08;;
32295;SDS011;18781;51.550;5.418;2023-08-06T12:31:23;9.68;;;3.17;;
32295;SDS011;18781;51.550;5.418;2023-08-06T12:33:49;9.27;;;3.05;;
32295;SDS011;18781;51.550;5.418;2023-08-06T12:36:15;6.82;;;3.03;;
32295;SDS011;18781;51.550;5.418;2023-08-06T12:38:40;5.60;;;2.35;;
32295;SDS011;18781;51.550;5.418;2023-08-06T12:41:06;8.55;;;2.75;;
32295;SDS011;18781;51.550;5.418;2023-08-06T12:43:32;6.43;;;2.65;;
32295;SDS011;18781;51.550;5.418;2023-08-06T12:45:57;6.55;;;2.95;;
32295;SDS011;18781;51.550;5.418;2023-08-06T12:48:23;8.48;;;2.30;;
32295;SDS011;18781;51.550;5.418;2023-08-06T12:50:49;8.23;;;2.60;;
32295;SDS011;18781;51.550;5.418;2023-08-06T12:53:14;7.32;;;2.50;;
32295;SDS011;18781;51.550;5.418;2023-08-06T12:55:41;7.30;;;2.58;;
32295;SDS011;18781;51.550;5.418;2023-08-06T12:58:07;6.70;;;2.30;;
32295;SDS011;18781;51.550;5.418;2023-08-06T13:00:33;7.78;;;2.80;;
32295;SDS011;18781;51.550;5.418;2023-08-06T13:02:59;9.18;;;2.80;;
32295;SDS011;18781;51.550;5.418;2023-08-06T13:05:24;6.93;;;3.03;;
32295;SDS011;18781;51.550;5.418;2023-08-06T13:07:50;9.75;;;2.88;;
32295;SDS011;18781;51.550;5.418;2023-08-06T13:10:16;6.78;;;2.40;;
32295;SDS011;18781;51.550;5.418;2023-08-06T13:12:41;5.90;;;2.40;;
32295;SDS011;18781;51.550;5.418;2023-08-06T13:15:07;7.00;;;2.60;;
32295;SDS011;18781;51.550;5.418;2023-08-06T13:17:34;8.68;;;3.03;;
32295;SDS011;18781;51.550;5.418;2023-08-06T13:20:00;8.32;;;2.70;;
32295;SDS011;18781;51.550;5.418;2023-08-06T13:22:26;5.90;;;2.72;;
32295;SDS011;18781;51.550;5.418;2023-08-06T13:24:51;7.82;;;2.50;;
32295;SDS011;18781;51.550;5.418;2023-08-06T13:27:17;11.75;;;2.60;;
32295;SDS011;18781;51.550;5.418;2023-08-06T13:29:42;6.85;;;2.55;;
32295;SDS011;18781;51.550;5.418;2023-08-06T13:32:08;8.45;;;2.58;;
32295;SDS011;18781;51.550;5.418;2023-08-06T13:34:33;9.65;;;2.65;;
32295;SDS011;18781;51.550;5.418;2023-08-06T13:36:59;5.78;;;1.95;;
32295;SDS011;18781;51.550;5.418;2023-08-06T13:39:25;7.30;;;2.33;;
32295;SDS011;18781;51.550;5.418;2023-08-06T13:41:50;5.65;;;2.25;;
32295;SDS011;18781;51.550;5.418;2023-08-06T13:44:16;6.78;;;2.15;;
32295;SDS011;18781;51.550;5.418;2023-08-06T13:46:42;5.72;;;2.28;;
32295;SDS011;18781;51.550;5.418;2023-08-06T13:49:07;6.13;;;2.28;;
32295;SDS011;18781;51.550;5.418;2023-08-06T13:51:33;7.78;;;2.17;;
32295;SDS011;18781;51.550;5.418;2023-08-06T13:54:00;5.90;;;1.92;;
32295;SDS011;18781;51.550;5.418;2023-08-06T13:56:26;4.30;;;1.92;;
32295;SDS011;18781;51.550;5.418;2023-08-06T13:58:51;6.68;;;2.30;;
32295;SDS011;18781;51.550;5.418;2023-08-06T14:01:17;8.38;;;1.90;;
32295;SDS011;18781;51.550;5.418;2023-08-06T14:03:46;6.53;;;2.10;;
32295;SDS011;18781;51.550;5.418;2023-08-06T14:06:12;9.65;;;2.38;;
32295;SDS011;18781;51.550;5.418;2023-08-06T14:08:37;5.15;;;2.05;;
32295;SDS011;18781;51.550;5.418;2023-08-06T14:11:03;6.88;;;2.20;;
32295;SDS011;18781;51.550;5.418;2023-08-06T14:13:31;6.93;;;2.00;;
32295;SDS011;18781;51.550;5.418;2023-08-06T14:15:56;4.65;;;2.15;;
32295;SDS011;18781;51.550;5.418;2023-08-06T14:18:22;4.30;;;2.10;;
32295;SDS011;18781;51.550;5.418;2023-08-06T14:20:48;9.73;;;2.22;;
32295;SDS011;18781;51.550;5.418;2023-08-06T14:23:13;7.43;;;2.25;;
32295;SDS011;18781;51.550;5.418;2023-08-06T14:25:39;5.78;;;1.77;;
32295;SDS011;18781;51.550;5.418;2023-08-06T14:28:05;8.80;;;1.98;;
32295;SDS011;18781;51.550;5.418;2023-08-06T14:30:31;3.22;;;1.38;;
32295;SDS011;18781;51.550;5.418;2023-08-06T14:32:58;3.20;;;1.15;;
32295;SDS011;18781;51.550;5.418;2023-08-06T14:35:25;2.92;;;1.15;;
32295;SDS011;18781;51.550;5.418;2023-08-06T14:37:51;2.83;;;1.20;;
32295;SDS011;18781;51.550;5.418;2023-08-06T14:40:17;2.15;;;0.80;;
32295;SDS011;18781;51.550;5.418;2023-08-06T14:42:42;4.63;;;1.17;;
32295;SDS011;18781;51.550;5.418;2023-08-06T14:45:08;5.03;;;1.20;;
32295;SDS011;18781;51.550;5.418;2023-08-06T14:47:34;3.25;;;0.90;;
32295;SDS011;18781;51.550;5.418;2023-08-06T14:50:00;5.15;;;1.20;;
32295;SDS011;18781;51.550;5.418;2023-08-06T14:52:25;2.92;;;1.10;;
32295;SDS011;18781;51.550;5.418;2023-08-06T14:54:51;2.95;;;1.05;;